createdAt,value
2023-01-17T00:01:30.510Z,2.57
2023-01-17T00:04:15.489Z,2.58
2023-01-17T00:07:00.466Z,2.57
2023-01-17T00:09:45.280Z,2.56
2023-01-17T00:12:11.798Z,2.53
2023-01-17T00:14:38.142Z,2.52
2023-01-17T00:17:04.601Z,2.51
2023-01-17T00:19:49.816Z,2.54
2023-01-17T00:22:41.069Z,2.43
2023-01-17T00:25:30.171Z,2.45
2023-01-17T00:27:56.588Z,2.39
2023-01-17T00:30:23.322Z,2.47
2023-01-17T00:32:49.813Z,2.57
2023-01-17T00:35:16.676Z,2.49
2023-01-17T00:37:43.118Z,2.63
2023-01-17T00:40:10.334Z,2.58
2023-01-17T00:42:36.800Z,2.55
2023-01-17T00:45:22.881Z,2.53
2023-01-17T00:48:07.905Z,2.52
2023-01-17T00:50:55.732Z,2.53
2023-01-17T00:53:40.462Z,2.60
2023-01-17T00:56:25.830Z,2.64
2023-01-17T00:59:12.613Z,2.67
2023-01-17T01:01:57.839Z,2.77
2023-01-17T01:04:43.107Z,3.08
2023-01-17T01:07:28.015Z,3.31
2023-01-17T01:10:12.823Z,3.58
2023-01-17T01:12:57.677Z,3.72
2023-01-17T01:15:42.528Z,3.79
2023-01-17T01:18:28.353Z,3.75
2023-01-17T01:21:13.254Z,3.90
2023-01-17T01:23:57.954Z,3.91
2023-01-17T01:26:42.691Z,3.95
2023-01-17T01:29:27.395Z,3.97
2023-01-17T01:32:12.053Z,3.96
2023-01-17T01:34:38.462Z,4.02
2023-01-17T01:37:04.839Z,4.04
2023-01-17T01:39:31.187Z,4.10
2023-01-17T01:41:57.580Z,4.13
2023-01-17T01:44:48.541Z,4.25
2023-01-17T01:47:28.820Z,4.32
2023-01-17T01:49:55.486Z,4.23
2023-01-17T01:52:26.060Z,4.20
2023-01-17T01:54:57.912Z,4.17
2023-01-17T01:57:29.539Z,4.29
2023-01-17T01:59:59.730Z,4.22
2023-01-17T02:02:28.205Z,4.39
2023-01-17T02:04:54.602Z,4.33
2023-01-17T02:07:44.634Z,4.57
2023-01-17T02:10:12.715Z,4.54
2023-01-17T02:12:39.854Z,4.55
2023-01-17T02:15:07.523Z,4.50
2023-01-17T02:17:52.908Z,4.53
2023-01-17T02:20:32.980Z,4.50
2023-01-17T02:23:15.613Z,4.42
2023-01-17T02:26:03.850Z,4.54
2023-01-17T02:28:42.289Z,4.51
2023-01-17T02:31:17.675Z,4.69
2023-01-17T02:33:57.199Z,4.56
2023-01-17T02:36:29.647Z,4.63
2023-01-17T02:39:08.235Z,4.66
2023-01-17T02:41:40.668Z,4.71
2023-01-17T02:44:10.151Z,4.68
2023-01-17T02:46:48.194Z,4.75
2023-01-17T02:49:17.949Z,4.71
2023-01-17T02:52:12.372Z,4.77
2023-01-17T02:54:47.613Z,4.84
2023-01-17T02:57:33.030Z,4.83
2023-01-17T03:00:18.299Z,4.81
2023-01-17T03:02:50.806Z,4.87
2023-01-17T03:05:31.332Z,4.98
2023-01-17T03:07:59.264Z,4.92
2023-01-17T03:10:25.838Z,4.88
2023-01-17T03:12:57.769Z,4.99
2023-01-17T03:15:24.280Z,4.96
2023-01-17T03:17:53.110Z,5.00
2023-01-17T03:20:22.265Z,4.93
2023-01-17T03:22:48.906Z,5.02
2023-01-17T03:25:16.339Z,5.11
2023-01-17T03:27:42.706Z,5.04
2023-01-17T03:30:09.870Z,5.22
2023-01-17T03:32:36.252Z,5.10
2023-01-17T03:35:02.653Z,5.14
2023-01-17T03:37:29.028Z,5.12
2023-01-17T03:39:55.380Z,5.20
2023-01-17T03:42:21.739Z,5.15
2023-01-17T03:44:48.344Z,5.18
2023-01-17T03:47:14.771Z,5.13
2023-01-17T03:49:41.198Z,5.09
2023-01-17T03:52:07.615Z,5.22
2023-01-17T03:54:34.171Z,5.15
2023-01-17T03:57:00.598Z,5.14
2023-01-17T03:59:26.981Z,5.11
2023-01-17T04:01:53.518Z,5.11
2023-01-17T04:04:19.894Z,5.14
2023-01-17T04:06:47.968Z,5.12
2023-01-17T04:09:14.377Z,5.06
2023-01-17T04:11:40.745Z,5.13
2023-01-17T04:14:07.102Z,5.08
2023-01-17T04:16:33.769Z,5.08
2023-01-17T04:19:00.216Z,5.08
2023-01-17T04:21:26.570Z,5.04
2023-01-17T04:23:53.643Z,4.98
2023-01-17T04:26:20.388Z,5.01
2023-01-17T04:28:46.803Z,5.00
2023-01-17T04:31:15.686Z,5.01
2023-01-17T04:33:42.240Z,4.92
2023-01-17T04:36:08.967Z,4.97
2023-01-17T04:38:35.311Z,4.94
2023-01-17T04:41:01.939Z,4.94
2023-01-17T04:43:28.330Z,4.99
2023-01-17T04:45:58.907Z,4.94
2023-01-17T04:48:25.348Z,4.99
2023-01-17T04:50:51.763Z,4.98
2023-01-17T04:53:18.136Z,4.92
2023-01-17T04:55:47.505Z,4.92
2023-01-17T04:58:14.092Z,4.89
2023-01-17T05:00:40.525Z,4.86
2023-01-17T05:03:07.221Z,4.89
2023-01-17T05:05:33.707Z,4.87
2023-01-17T05:08:00.272Z,4.83
2023-01-17T05:10:27.092Z,4.87
2023-01-17T05:12:55.120Z,4.84
2023-01-17T05:15:21.891Z,4.89
2023-01-17T05:17:48.263Z,4.86
2023-01-17T05:20:14.649Z,4.95
2023-01-17T05:22:41.047Z,4.86
2023-01-17T05:25:07.758Z,4.83
2023-01-17T05:27:34.326Z,4.82
2023-01-17T05:30:00.695Z,4.87
2023-01-17T05:32:27.126Z,4.83
2023-01-17T05:34:53.486Z,4.90
2023-01-17T05:37:20.749Z,4.89
2023-01-17T05:39:47.097Z,4.97
2023-01-17T05:42:13.592Z,4.87
2023-01-17T05:44:40.578Z,4.91
2023-01-17T05:47:07.060Z,4.89
2023-01-17T05:49:33.452Z,4.86
2023-01-17T05:51:59.832Z,4.87
2023-01-17T05:54:26.193Z,4.92
2023-01-17T05:56:52.569Z,4.79
2023-01-17T05:59:32.268Z,4.77
2023-01-17T06:02:02.743Z,4.81
2023-01-17T06:04:29.270Z,4.82
2023-01-17T06:06:55.693Z,4.74
2023-01-17T06:09:22.277Z,4.84
2023-01-17T06:11:48.675Z,4.83
2023-01-17T06:14:15.047Z,4.72
2023-01-17T06:16:41.538Z,4.65
2023-01-17T06:19:09.452Z,4.65
2023-01-17T06:21:35.841Z,4.73
2023-01-17T06:24:04.098Z,4.70
2023-01-17T06:26:30.708Z,4.64
2023-01-17T06:28:57.094Z,4.69
2023-01-17T06:31:23.451Z,4.55
2023-01-17T06:33:49.910Z,4.49
2023-01-17T06:36:16.297Z,4.49
2023-01-17T06:38:42.655Z,4.43
2023-01-17T06:41:09.671Z,4.50
2023-01-17T06:43:36.048Z,4.49
2023-01-17T06:46:02.478Z,4.41
2023-01-17T06:48:28.876Z,4.51
2023-01-17T06:50:57.414Z,4.44
2023-01-17T06:53:23.948Z,4.38
2023-01-17T06:55:50.373Z,4.39
2023-01-17T06:58:16.739Z,4.39
2023-01-17T07:00:43.191Z,4.35
2023-01-17T07:03:19.119Z,4.41
2023-01-17T07:05:45.525Z,4.38
2023-01-17T07:08:11.941Z,4.42
2023-01-17T07:10:38.324Z,4.40
2023-01-17T07:13:04.703Z,4.42
2023-01-17T07:15:31.076Z,4.31
2023-01-17T07:18:01.122Z,4.34
2023-01-17T07:20:27.534Z,4.29
2023-01-17T07:22:53.916Z,4.26
2023-01-17T07:25:20.590Z,4.38
2023-01-17T07:27:46.964Z,4.22
2023-01-17T07:30:13.883Z,4.18
2023-01-17T07:32:40.401Z,4.17
2023-01-17T07:35:07.115Z,4.14
2023-01-17T07:37:33.543Z,4.18
2023-01-17T07:40:02.415Z,4.08
2023-01-17T07:42:28.820Z,4.10
2023-01-17T07:44:55.329Z,4.10
2023-01-17T07:47:22.031Z,4.15
2023-01-17T07:49:48.447Z,4.14
2023-01-17T07:52:16.865Z,4.13
2023-01-17T07:54:44.429Z,4.07
2023-01-17T07:57:13.854Z,4.14
2023-01-17T07:59:40.256Z,4.05
2023-01-17T08:02:14.920Z,4.14
2023-01-17T08:04:41.279Z,4.05
2023-01-17T08:07:07.655Z,4.01
2023-01-17T08:09:34.031Z,3.95
2023-01-17T08:12:01.095Z,3.96
2023-01-17T08:14:27.476Z,4.07
2023-01-17T08:16:53.854Z,4.00
2023-01-17T08:19:20.381Z,3.96
2023-01-17T08:21:46.946Z,3.96
2023-01-17T08:24:14.198Z,4.03
2023-01-17T08:26:40.601Z,3.98
2023-01-17T08:29:06.974Z,3.95
2023-01-17T08:31:35.235Z,3.98
2023-01-17T08:34:01.705Z,4.01
2023-01-17T08:36:28.796Z,3.94
2023-01-17T08:38:55.429Z,3.99
2023-01-17T08:41:22.739Z,4.01
2023-01-17T08:43:49.994Z,4.00
2023-01-17T08:46:17.084Z,4.14
2023-01-17T08:48:44.030Z,4.14
2023-01-17T08:51:11.291Z,4.13
2023-01-17T08:53:38.083Z,4.08
2023-01-17T08:56:05.942Z,4.17
2023-01-17T08:58:33.039Z,4.14
2023-01-17T09:01:03.846Z,4.24
2023-01-17T09:03:31.297Z,4.22
2023-01-17T09:06:17.936Z,4.16
2023-01-17T09:08:47.736Z,4.38
2023-01-17T09:11:15.009Z,4.21
2023-01-17T09:13:42.231Z,4.20
2023-01-17T09:16:09.524Z,4.23
2023-01-17T09:18:37.000Z,4.28
2023-01-17T09:21:11.751Z,4.23
2023-01-17T09:23:38.147Z,4.34
2023-01-17T09:26:04.624Z,4.27
2023-01-17T09:28:31.194Z,4.35
2023-01-17T09:30:57.621Z,4.39
2023-01-17T09:33:24.462Z,4.35
2023-01-17T09:35:50.927Z,4.35
2023-01-17T09:38:17.323Z,4.40
2023-01-17T09:40:46.961Z,4.33
2023-01-17T09:43:41.584Z,4.43
2023-01-17T09:46:22.393Z,4.50
2023-01-17T09:48:56.330Z,4.44
2023-01-17T09:51:26.536Z,4.36
2023-01-17T09:53:53.718Z,4.36
2023-01-17T09:56:29.594Z,4.48
2023-01-17T09:59:18.800Z,4.43
2023-01-17T10:02:25.954Z,4.30
2023-01-17T10:05:26.388Z,4.56
2023-01-17T10:08:04.713Z,4.44
2023-01-17T10:10:42.129Z,4.52
2023-01-17T10:13:41.105Z,4.57
2023-01-17T10:16:16.528Z,4.63
2023-01-17T10:19:10.750Z,4.63
2023-01-17T10:22:07.472Z,4.53
2023-01-17T10:25:09.922Z,4.53
2023-01-17T10:27:45.528Z,4.52
2023-01-17T10:30:37.297Z,4.49
2023-01-17T10:33:13.142Z,4.42
2023-01-17T10:35:50.794Z,4.61
2023-01-17T10:38:18.175Z,4.51
2023-01-17T10:40:51.591Z,4.47
2023-01-17T10:43:27.678Z,4.48
2023-01-17T10:45:56.608Z,4.49
2023-01-17T10:48:38.881Z,4.45
2023-01-17T10:51:49.786Z,4.48
2023-01-17T10:54:16.085Z,4.50
2023-01-17T10:56:42.773Z,4.42
2023-01-17T10:59:22.466Z,4.35
2023-01-17T11:01:51.098Z,4.36
2023-01-17T11:04:40.215Z,4.31
2023-01-17T11:07:14.388Z,4.31
2023-01-17T11:09:49.844Z,4.33
2023-01-17T11:12:33.385Z,4.37
2023-01-17T11:15:08.790Z,4.33
2023-01-17T11:18:02.795Z,4.29
2023-01-17T11:20:37.057Z,4.33
2023-01-17T11:23:16.893Z,4.28
2023-01-17T11:25:50.851Z,4.26
2023-01-17T11:28:26.204Z,4.35
2023-01-17T11:30:55.612Z,4.48
2023-01-17T11:33:47.739Z,4.44
2023-01-17T11:36:29.019Z,4.38
2023-01-17T11:39:02.723Z,4.34
2023-01-17T11:41:40.322Z,4.33
2023-01-17T11:44:23.044Z,4.36
2023-01-17T11:47:08.834Z,4.39
2023-01-17T11:49:35.745Z,4.48
2023-01-17T11:52:08.964Z,4.43
2023-01-17T11:54:40.321Z,4.48
2023-01-17T11:57:20.788Z,4.47
2023-01-17T11:59:47.961Z,4.54
2023-01-17T12:02:31.755Z,4.55
2023-01-17T12:05:33.717Z,4.50
2023-01-17T12:08:23.875Z,4.70
2023-01-17T12:11:04.377Z,4.55
2023-01-17T12:14:01.038Z,4.57
2023-01-17T12:16:43.239Z,4.60
2023-01-17T12:19:42.241Z,4.67
2023-01-17T12:22:22.668Z,4.65
2023-01-17T12:24:58.300Z,4.69
2023-01-17T12:27:28.831Z,4.73
2023-01-17T12:30:08.827Z,4.59
2023-01-17T12:32:49.329Z,4.61
2023-01-17T12:35:22.815Z,4.49
2023-01-17T12:38:04.661Z,4.47
2023-01-17T12:40:46.121Z,4.47
2023-01-17T12:43:36.888Z,4.34
2023-01-17T12:46:30.781Z,4.42
2023-01-17T12:49:19.754Z,4.38
2023-01-17T12:51:50.119Z,4.39
2023-01-17T12:54:28.770Z,4.35
2023-01-17T12:57:02.349Z,4.40
2023-01-17T12:59:54.435Z,4.41
2023-01-17T13:02:32.365Z,4.38
2023-01-17T13:05:18.356Z,4.31
2023-01-17T13:08:27.007Z,4.31
2023-01-17T13:11:02.284Z,4.30
2023-01-17T13:13:30.233Z,4.32
2023-01-17T13:16:16.268Z,4.37
2023-01-17T13:18:48.113Z,4.39
2023-01-17T13:21:32.320Z,4.45
2023-01-17T13:23:59.172Z,4.32
2023-01-17T13:26:50.754Z,4.29
2023-01-17T13:29:35.456Z,4.24
2023-01-17T13:32:21.278Z,4.17
2023-01-17T13:35:23.296Z,4.21
2023-01-17T13:38:09.611Z,4.16
2023-01-17T13:40:55.946Z,4.26
2023-01-17T13:43:30.640Z,4.18
2023-01-17T13:46:03.332Z,4.20
2023-01-17T13:48:30.878Z,4.23
2023-01-17T13:51:12.693Z,4.34
2023-01-17T13:53:39.087Z,4.29
2023-01-17T13:56:26.746Z,4.22
2023-01-17T13:58:57.912Z,4.20
2023-01-17T14:01:24.443Z,4.18
2023-01-17T14:03:51.110Z,4.20
2023-01-17T14:06:33.760Z,4.28
2023-01-17T14:09:03.339Z,4.27
2023-01-17T14:11:33.792Z,4.29
2023-01-17T14:14:36.340Z,4.28
2023-01-17T14:17:18.799Z,4.27
2023-01-17T14:19:48.120Z,4.24
2023-01-17T14:22:20.215Z,4.22
2023-01-17T14:25:03.274Z,4.31
2023-01-17T14:27:34.619Z,4.23
2023-01-17T14:30:04.332Z,4.25
2023-01-17T14:32:35.317Z,4.21
2023-01-17T14:35:02.487Z,4.20
2023-01-17T14:37:31.703Z,4.15
2023-01-17T14:39:59.407Z,4.15
2023-01-17T14:42:29.020Z,4.06
2023-01-17T14:45:08.206Z,4.13
2023-01-17T14:47:41.339Z,3.98
2023-01-17T14:50:29.532Z,3.97
2023-01-17T14:53:10.722Z,3.92
2023-01-17T14:55:38.628Z,3.94
2023-01-17T14:58:05.253Z,3.87
2023-01-17T15:00:34.950Z,3.85
2023-01-17T15:03:02.229Z,3.79
2023-01-17T15:05:29.834Z,3.77
2023-01-17T15:07:58.103Z,3.78
2023-01-17T15:10:31.278Z,3.65
2023-01-17T15:13:05.337Z,3.64
2023-01-17T15:15:35.386Z,3.56
2023-01-17T15:18:08.842Z,3.53
2023-01-17T15:20:37.419Z,3.48
2023-01-17T15:23:04.222Z,3.54
2023-01-17T15:25:30.968Z,3.44
2023-01-17T15:27:57.636Z,3.45
2023-01-17T15:30:25.244Z,3.34
2023-01-17T15:32:52.507Z,3.32
2023-01-17T15:35:20.472Z,3.28
2023-01-17T15:37:53.472Z,3.27
2023-01-17T15:40:25.428Z,3.24
2023-01-17T15:42:56.627Z,3.28
2023-01-17T15:45:29.485Z,3.24
2023-01-17T15:47:56.055Z,3.21
2023-01-17T15:50:24.560Z,3.17
2023-01-17T15:52:55.172Z,3.19
2023-01-17T15:55:36.173Z,3.21
2023-01-17T15:58:04.494Z,3.23
2023-01-17T16:00:39.177Z,3.22
2023-01-17T16:03:22.772Z,3.23
2023-01-17T16:05:49.761Z,3.35
2023-01-17T16:08:16.296Z,3.29
2023-01-17T16:10:44.135Z,3.25
2023-01-17T16:13:12.889Z,3.21
2023-01-17T16:15:42.352Z,3.18
2023-01-17T16:18:18.727Z,3.15
2023-01-17T16:20:54.637Z,3.18
2023-01-17T16:23:20.953Z,3.16
2023-01-17T16:25:47.985Z,3.14
2023-01-17T16:28:14.388Z,3.10
2023-01-17T16:30:40.890Z,3.17
2023-01-17T16:33:11.340Z,3.29
2023-01-17T16:35:39.388Z,3.25
2023-01-17T16:38:12.529Z,3.17
2023-01-17T16:40:41.224Z,3.08
2023-01-17T16:43:07.831Z,3.12
2023-01-17T16:45:46.459Z,3.06
2023-01-17T16:48:13.013Z,3.00
2023-01-17T16:50:48.240Z,2.96
2023-01-17T16:53:15.233Z,2.95
2023-01-17T16:55:43.061Z,2.92
2023-01-17T16:58:09.757Z,2.89
2023-01-17T17:00:36.116Z,2.87
2023-01-17T17:03:02.660Z,2.85
2023-01-17T17:05:30.572Z,2.84
2023-01-17T17:07:57.454Z,2.81
2023-01-17T17:10:25.198Z,2.71
2023-01-17T17:12:51.991Z,2.67
2023-01-17T17:15:18.512Z,2.61
2023-01-17T17:17:45.044Z,2.71
2023-01-17T17:20:14.344Z,2.94
2023-01-17T17:22:45.625Z,2.73
2023-01-17T17:25:12.248Z,2.65
2023-01-17T17:27:38.753Z,2.57
2023-01-17T17:30:06.222Z,2.51
2023-01-17T17:32:32.615Z,2.45
2023-01-17T17:34:59.341Z,2.39
2023-01-17T17:37:28.722Z,2.36
2023-01-17T17:39:56.189Z,2.34
2023-01-17T17:42:22.745Z,2.28
2023-01-17T17:44:49.114Z,2.20
2023-01-17T17:47:16.133Z,2.15
2023-01-17T17:49:43.268Z,2.11
2023-01-17T17:52:10.175Z,2.07
2023-01-17T17:54:36.621Z,2.02
2023-01-17T17:57:03.305Z,1.96
2023-01-17T17:59:29.855Z,1.92
2023-01-17T18:01:56.284Z,1.91
2023-01-17T18:04:22.774Z,1.82
2023-01-17T18:06:49.137Z,1.74
2023-01-17T18:09:16.082Z,1.71
2023-01-17T18:11:43.646Z,1.68
2023-01-17T18:14:14.275Z,1.59
2023-01-17T18:16:43.111Z,1.53
2023-01-17T18:19:15.598Z,1.49
2023-01-17T18:21:42.899Z,1.58
2023-01-17T18:24:14.496Z,1.52
2023-01-17T18:26:49.899Z,1.58
2023-01-17T18:29:18.097Z,1.55
2023-01-17T18:31:45.682Z,1.54
2023-01-17T18:34:15.157Z,1.69
2023-01-17T18:36:42.996Z,1.46
2023-01-17T18:39:15.433Z,1.46
2023-01-17T18:41:42.373Z,1.39
2023-01-17T18:44:09.189Z,1.34
2023-01-17T18:46:36.207Z,1.26
2023-01-17T18:49:04.211Z,1.19
2023-01-17T18:51:32.552Z,1.18
2023-01-17T18:54:02.857Z,1.20
2023-01-17T18:56:34.357Z,1.15
2023-01-17T18:59:02.311Z,1.11
2023-01-17T19:01:33.632Z,1.01
2023-01-17T19:04:02.571Z,0.90
2023-01-17T19:06:32.457Z,0.87
2023-01-17T19:08:59.531Z,0.79
2023-01-17T19:11:27.599Z,0.75
2023-01-17T19:13:54.469Z,0.68
2023-01-17T19:16:28.067Z,0.62
2023-01-17T19:18:56.625Z,0.63
2023-01-17T19:21:25.380Z,0.82
2023-01-17T19:23:52.208Z,0.77
2023-01-17T19:26:20.210Z,0.75
2023-01-17T19:28:50.134Z,0.64
2023-01-17T19:31:23.010Z,0.53
2023-01-17T19:33:52.146Z,0.44
2023-01-17T19:36:21.116Z,0.38
2023-01-17T19:39:03.046Z,0.36
2023-01-17T19:41:31.205Z,0.34
2023-01-17T19:44:00.239Z,0.27
2023-01-17T19:46:27.590Z,0.22
2023-01-17T19:48:55.569Z,0.16
2023-01-17T19:51:23.072Z,0.14
2023-01-17T19:53:49.667Z,0.15
2023-01-17T19:56:23.603Z,0.06
2023-01-17T19:58:50.405Z,0.08
2023-01-17T20:01:22.123Z,0.04
2023-01-17T20:03:49.563Z,0.02
2023-01-17T20:06:18.893Z,-0.08
2023-01-17T20:08:45.706Z,-0.02
2023-01-17T20:11:15.586Z,0.03
2023-01-17T20:13:42.075Z,-0.03
2023-01-17T20:16:11.334Z,-0.07
2023-01-17T20:18:38.566Z,-0.16
2023-01-17T20:21:07.548Z,-0.01
2023-01-17T20:23:38.784Z,0.02
2023-01-17T20:26:06.109Z,-0.07
2023-01-17T20:28:34.302Z,-0.21
2023-01-17T20:31:24.004Z,-0.17
2023-01-17T20:33:54.087Z,-0.24
2023-01-17T20:36:22.696Z,-0.34
2023-01-17T20:38:49.355Z,-0.43
2023-01-17T20:41:24.977Z,-0.51
2023-01-17T20:43:53.960Z,-0.46
2023-01-17T20:46:23.038Z,-0.48
2023-01-17T20:48:51.524Z,-0.50
2023-01-17T20:51:19.084Z,-0.51
2023-01-17T20:53:46.849Z,-0.50
2023-01-17T20:56:14.988Z,-0.51
2023-01-17T20:58:41.927Z,-0.47
2023-01-17T21:01:10.271Z,-0.48
2023-01-17T21:03:37.845Z,-0.57
2023-01-17T21:06:13.831Z,-0.64
2023-01-17T21:08:42.643Z,-0.51
2023-01-17T21:11:12.320Z,-0.57
2023-01-17T21:13:39.244Z,-0.55
2023-01-17T21:16:08.135Z,-0.47
2023-01-17T21:18:35.053Z,-0.59
2023-01-17T21:21:13.207Z,-0.65
2023-01-17T21:23:41.297Z,-0.60
2023-01-17T21:26:10.817Z,-0.61
2023-01-17T21:28:59.376Z,-0.71
2023-01-17T21:31:28.540Z,-0.68
2023-01-17T21:33:57.363Z,-0.70
2023-01-17T21:36:28.926Z,-0.73
2023-01-17T21:38:57.510Z,-0.71
2023-01-17T21:41:28.924Z,-0.76
2023-01-17T21:44:00.670Z,-0.68
2023-01-17T21:46:28.999Z,-0.47
2023-01-17T21:48:57.545Z,-0.04
2023-01-17T21:51:24.319Z,-0.03
2023-01-17T21:53:50.788Z,-0.31
2023-01-17T21:56:36.001Z,-0.53
2023-01-17T21:59:02.383Z,-0.51
2023-01-17T22:01:32.002Z,-0.57
2023-01-17T22:04:06.644Z,-0.63
2023-01-17T22:06:39.283Z,-0.65
2023-01-17T22:09:05.836Z,-0.54
2023-01-17T22:11:32.549Z,-0.67
2023-01-17T22:13:59.488Z,-0.67
2023-01-17T22:16:26.117Z,-0.74
2023-01-17T22:18:52.704Z,-0.70
2023-01-17T22:21:28.704Z,-0.73
2023-01-17T22:23:59.513Z,-0.75
2023-01-17T22:26:28.947Z,-0.73
2023-01-17T22:28:55.841Z,-0.85
2023-01-17T22:31:24.806Z,-0.67
2023-01-17T22:33:59.573Z,-0.59
2023-01-17T22:36:26.695Z,-0.57
2023-01-17T22:38:53.151Z,-0.44
2023-01-17T22:41:25.301Z,-0.59
2023-01-17T22:43:53.766Z,-0.68
2023-01-17T22:46:25.881Z,-0.66
2023-01-17T22:48:53.722Z,-0.68
2023-01-17T22:51:22.283Z,-0.70
2023-01-17T22:53:51.038Z,-0.73
2023-01-17T22:56:19.756Z,-0.61
2023-01-17T22:58:48.067Z,-0.23
2023-01-17T23:01:25.102Z,-0.27
2023-01-17T23:03:54.597Z,-0.08
2023-01-17T23:06:25.547Z,-0.40
2023-01-17T23:09:20.235Z,-0.41
2023-01-17T23:11:49.678Z,-0.41
2023-01-17T23:14:21.320Z,-0.46
2023-01-17T23:17:21.021Z,-0.51
2023-01-17T23:19:50.874Z,-0.43
2023-01-17T23:22:26.893Z,-0.43
2023-01-17T23:25:02.284Z,-0.46
2023-01-17T23:28:02.221Z,-0.65
2023-01-17T23:30:34.378Z,-0.69
2023-01-17T23:33:04.489Z,-0.71
2023-01-17T23:35:34.234Z,-0.60
2023-01-17T23:38:19.526Z,-0.60
2023-01-17T23:41:04.846Z,-0.42
2023-01-17T23:43:32.067Z,-0.35
2023-01-17T23:45:58.724Z,-0.35
2023-01-17T23:48:28.546Z,-0.32
2023-01-17T23:50:59.607Z,-0.26
2023-01-17T23:53:27.371Z,-0.29
2023-01-17T23:55:55.866Z,-0.48
2023-01-17T23:58:24.487Z,-0.27
